Latest Weather Observations for Bendigo

IDV60801

Issued at 7:42 pm EDT Thursday 17 October 2019 (issued every 10 minutes, with the page automatically refreshed every 10 minutes)

About weather observations | Map of weather stations | Latest weather observations for VIC | Other Formats
Station Details ID: 081123 Name: BENDIGO AIRPORT Lat: -36.74 Lon: 144.33 Height: 209.17 m
Data from the previous 72 hours. | See also: Recent months at Bendigo
Date/Time
EDT
Temp
°C
App
Temp
°C
Dew
Point
°C
Rel
Hum
%
Delta-T
°C
Wind Press
QNH
hPa
Press
MSL
hPa
Rain since
9am
mm
Dir  Spd
km/h
Gust
km/h
Spd
kts
Gust
kts
17/07:30pm 11.9 7.6 6.8 71 2.5 SSW 19 28 10 15 1014.7 1014.6 0.8
17/07:00pm 12.4 8.5 7.1 70 2.6 SW 17 26 9 14 1014.4 1014.3 0.8
17/06:30pm 13.4 9.1 7.0 65 3.1 SW 19 28 10 15 1013.8 1013.7 0.8
17/06:00pm 13.4 8.2 5.3 58 3.8 SW 22 35 12 19 1013.3 1013.2 0.8
17/05:30pm 13.4 8.2 7.4 67 3.0 SW 24 41 13 22 1013.0 1012.8 0.8
17/05:00pm 12.8 9.5 9.4 80 1.7 SW 17 26 9 14 1012.8 1012.6 0.8
17/04:44pm 10.7 3.6 6.6 76 2.0 WSW 33 59 18 32 1013.0 1012.8 0.6
17/04:41pm 11.4 5.2 6.1 70 2.5 WSW 28 59 15 32 1012.8 1012.6 0.4
17/04:30pm 14.5 9.5 4.5 51 4.7 W 20 32 11 17 1011.9 1011.7 0.2
17/04:05pm 13.7 7.2 4.6 54 4.2 W 28 46 15 25 1012.0 1011.8 0.2
17/04:00pm 14.7 8.5 4.4 50 4.8 W 26 43 14 23 1011.9 1011.7 0.2
17/03:30pm 15.2 8.0 3.0 44 5.6 W 30 44 16 24 1011.7 1011.6 0.2
17/03:00pm 14.8 7.4 3.9 48 5.1 W 32 44 17 24 1011.9 1011.7 0.2
17/02:36pm 13.5 6.7 3.0 49 4.7 WSW 28 50 15 27 1012.0 1011.8 0.2
17/02:30pm 15.3 9.3 3.1 44 5.6 WSW 24 41 13 22 1011.9 1011.7 0.2
17/02:04pm 14.1 6.3 1.7 43 5.5 W 32 50 17 27 1011.9 1011.7 0.2
17/02:00pm 14.3 6.3 1.6 42 5.6 W 33 50 18 27 1011.6 1011.5 0.2
17/01:33pm 14.7 7.3 1.6 41 5.8 W 30 52 16 28 1011.5 1011.4 0.2
17/01:30pm 14.4 7.0 2.0 43 5.5 W 30 43 16 23 1011.6 1011.5 0.2
17/01:00pm 14.1 6.3 2.7 46 5.1 WNW 33 46 18 25 1011.7 1011.6 0.2
17/12:36pm 13.1 5.7 2.1 47 4.8 W 30 48 16 26 1011.7 1011.6 0.2
17/12:30pm 13.4 7.0 1.1 43 5.3 W 24 39 13 21 1011.7 1011.6 0.2
17/12:00pm 14.1 7.9 2.4 45 5.2 W 24 39 13 21 1011.9 1011.7 0.2
17/11:47am 13.5 6.4 1.5 44 5.2 W 28 46 15 25 1011.9 1011.7 0.2
17/11:30am 13.5 6.7 3.0 49 4.7 W 28 44 15 24 1011.7 1011.6 0.2
17/11:00am 12.7 6.7 3.4 53 4.2 W 24 37 13 20 1011.6 1011.5 0.2
17/10:30am 10.8 4.6 4.5 65 2.9 W 26 37 14 20 1011.7 1011.6 0.2
17/10:00am 10.4 5.1 5.0 69 2.5 W 22 32 12 17 1011.5 1011.4 0.2
17/09:30am 9.4 3.6 4.6 72 2.2 W 24 41 13 22 1011.2 1011.1 0.2
17/09:00am 9.2 4.0 5.4 77 1.7 W 22 35 12 19 1010.8 1010.7 6.2
17/08:30am 8.8 3.2 5.5 80 1.5 WNW 24 39 13 21 1010.1 1010.0 6.2
17/08:00am 8.1 2.0 5.0 81 1.4 WNW 26 37 14 20 1009.9 1009.8 6.2
17/07:30am 7.8 2.5 5.1 83 1.2 WNW 22 32 12 17 1009.6 1009.5 6.2
17/07:00am 7.8 2.9 5.1 83 1.2 WNW 20 32 11 17 1009.2 1009.1 6.2
17/06:30am 8.1 3.3 5.4 83 1.2 WNW 20 32 11 17 1008.9 1008.7 6.2
17/06:00am 7.8 3.5 5.4 85 1.1 WNW 17 22 9 12 1008.4 1008.2 6.2
17/05:30am 8.1 4.4 6.2 88 0.9 WNW 15 20 8 11 1008.3 1008.1 6.2
17/05:00am 8.2 3.7 6.0 86 1.0 W 19 22 10 12 1008.3 1008.1 6.2
17/04:30am 8.7 4.1 6.7 87 0.9 W 20 32 11 17 1008.4 1008.2 6.2
17/04:00am 9.0 4.1 7.0 87 0.9 WNW 22 32 12 17 1008.7 1008.5 6.0
17/03:30am 8.9 4.5 6.5 85 1.1 W 19 30 10 16 1008.7 1008.5 6.0
17/03:00am 8.9 4.7 5.8 81 1.4 W 17 20 9 11 1008.7 1008.5 6.0
17/02:30am 8.8 4.2 5.4 79 1.6 WNW 19 26 10 14 1009.0 1008.8 6.0
17/02:00am 8.3 5.3 5.8 84 1.1 WNW 11 15 6 8 1008.9 1008.7 6.0
17/01:30am 8.1 5.5 6.2 88 0.9 WNW 9 11 5 6 1009.3 1009.2 6.0
17/01:00am 8.3 6.7 6.4 88 0.9 W 4 6 2 3 1009.3 1009.2 6.0
17/12:30am 9.6 7.3 7.4 86 1.1 WNW 9 11 5 6 1009.6 1009.5 6.0
17/12:00am 10.4 8.7 8.5 88 0.9 WNW 7 11 4 6 1009.6 1009.5 6.0
 
Date/Time
EDT
Temp
°C
App
Temp
°C
Dew
Point
°C
Rel
Hum
%
Delta-T
°C
Wind Press
QNH
hPa
Press
MSL
hPa
Rain since
9am
mm
Dir  Spd
km/h
Gust
km/h
Spd
kts
Gust
kts
16/11:30pm 10.6 8.7 9.2 91 0.7 WNW 9 17 5 9 1009.5 1009.4 6.0
16/11:01pm 9.7 8.3 9.4 98 0.2 NW 7 11 4 6 1009.4 1009.3 6.0
16/11:00pm 9.8 8.6 9.5 98 0.2 NW 6 9 3 5 1009.4 1009.3 6.0
16/10:30pm 9.1 8.8 8.5 96 0.3 CALM 0 0 0 0 1009.4 1009.3 6.0
16/10:29pm 9.1 8.8 8.5 96 0.3 CALM 0 0 0 0 1009.4 1009.3 6.0
16/10:00pm 10.5 10.5 9.9 96 0.3 CALM 0 0 0 0 1009.5 1009.4 6.0
16/09:30pm 10.5 10.5 9.7 95 0.4 CALM 0 0 0 0 1009.6 1009.5 6.0
16/09:00pm 11.4 10.3 10.5 94 0.5 NNW 7 9 4 5 1009.4 1009.3 6.0
16/08:30pm 11.9 12.0 10.1 89 0.9 CALM 0 0 0 0 1009.3 1009.2 6.0
16/08:00pm 11.8 10.7 10.5 92 0.7 SW 7 9 4 5 1009.4 1009.3 5.8
16/07:46pm 12.0 9.4 10.6 91 0.7 SW 15 26 8 14 1009.4 1009.3 5.8
16/07:30pm 13.0 9.1 10.7 86 1.2 W 22 44 12 24 1009.3 1009.2 5.4
16/07:27pm 13.6 10.0 10.4 81 1.7 WNW 20 44 11 24 1009.3 1009.2 5.2
16/07:26pm 14.4 11.0 10.4 77 2.1 WNW 19 44 10 24 1009.2 1009.1 4.6
16/07:00pm 16.7 14.6 9.9 64 3.6 NW 11 15 6 8 1008.6 1008.4 3.8
16/06:30pm 17.0 15.7 9.9 63 3.8 NW 7 11 4 6 1008.5 1008.3 3.8
16/06:00pm 18.0 15.1 9.6 58 4.5 W 15 22 8 12 1008.4 1008.2 3.8
16/05:30pm 17.6 15.1 10.9 65 3.6 NW 15 24 8 13 1008.3 1008.1 3.8
16/05:00pm 17.6 16.0 12.7 73 2.8 NNW 13 20 7 11 1008.4 1008.2 3.6
16/04:30pm 17.2 14.8 12.5 74 2.6 NNW 17 24 9 13 1008.7 1008.5 3.6
16/04:00pm 16.1 13.6 12.3 78 2.1 NNW 17 22 9 12 1009.1 1009.0 3.6
16/03:38pm 16.2 14.0 12.2 77 2.2 NNW 15 26 8 14 1009.3 1009.2 3.6
16/03:30pm 15.7 13.9 12.1 79 2.0 NNW 13 26 7 14 1009.4 1009.3 3.6
16/03:00pm 15.1 13.2 11.9 81 1.8 N 13 17 7 9 1009.6 1009.5 3.6
16/02:30pm 14.6 13.1 11.9 84 1.5 NNW 11 15 6 8 1010.4 1010.3 3.6
16/02:28pm 14.5 12.9 11.7 83 1.5 NW 11 15 6 8 1010.4 1010.3 3.6
16/02:27pm 14.7 13.2 12.0 84 1.5 NW 11 15 6 8 1010.3 1010.2 3.6
16/02:11pm 14.4 12.5 11.9 85 1.4 NW 13 19 7 10 1010.3 1010.2 3.6
16/02:00pm 14.6 12.4 12.1 85 1.4 NNW 15 19 8 10 1010.5 1010.4 3.6
16/01:30pm 14.2 12.2 11.4 83 1.5 NNW 13 17 7 9 1010.4 1010.3 3.6
16/01:00pm 14.2 12.2 11.5 84 1.5 WNW 13 20 7 11 1010.8 1010.7 3.6
16/12:30pm 14.1 12.3 12.0 87 1.1 NW 13 17 7 9 1011.0 1010.9 3.6
16/12:00pm 13.3 12.9 12.4 94 0.5 WNW 6 11 3 6 1011.2 1011.1 3.6
16/11:30am 12.4 10.8 11.6 95 0.4 WNW 11 20 6 11 1012.0 1011.8 3.4
16/11:00am 12.1 10.8 11.3 95 0.4 WNW 9 13 5 7 1012.1 1011.9 2.2
16/10:54am 12.0 11.0 11.1 94 0.5 WNW 7 11 4 6 1012.1 1011.9 2.0
16/10:30am 12.1 11.2 11.2 94 0.5 NNW 7 11 4 6 1011.6 1011.5 1.2
16/10:00am 12.0 11.6 11.2 95 0.4 N 4 11 2 6 1011.0 1010.9 1.2
16/09:56am 12.2 12.3 11.4 95 0.4 N 2 7 1 4 1010.9 1010.8 1.2
16/09:49am 11.9 10.9 11.1 95 0.4 NNW 7 9 4 5 1011.1 1011.0 1.2
16/09:35am 12.0 11.0 11.1 94 0.5 W 7 9 4 5 1011.6 1011.5 0.8
16/09:30am 11.9 11.4 10.8 93 0.6 WSW 4 7 2 4 1011.5 1011.4 0.4
16/09:03am 11.8 10.4 10.9 94 0.5 WSW 9 11 5 6 1011.9 1011.7 0.0
16/09:00am 11.8 10.8 10.9 94 0.5 W 7 9 4 5 1011.9 1011.7 2.4
16/08:45am 11.7 10.6 10.6 93 0.6 W 7 9 4 5 1012.1 1011.9 2.0
16/08:30am 11.7 10.5 10.4 92 0.7 NW 7 11 4 6 1012.1 1011.9 1.4
16/08:00am 12.0 10.8 10.4 90 0.8 NNW 7 9 4 5 1011.4 1011.3 0.6
16/07:30am 11.6 11.7 10.2 91 0.7 CALM 0 0 0 0 1010.9 1010.8 0.6
16/07:00am 11.4 11.4 9.7 89 0.9 CALM 0 0 0 0 1011.3 1011.2 0.6
16/06:30am 11.5 10.3 9.6 88 1.0 SSW 6 9 3 5 1011.2 1011.1 0.2
16/06:00am 11.3 10.1 9.6 89 0.9 SE 6 7 3 4 1010.7 1010.6 0.0
16/05:30am 11.7 10.2 9.3 85 1.2 SE 7 9 4 5 1010.6 1010.5 0.0
16/05:00am 11.9 10.4 8.6 80 1.7 SSW 6 9 3 5 1010.8 1010.7 0.0
16/04:30am 12.2 9.8 8.5 78 1.9 SSE 11 13 6 7 1010.7 1010.6 0.0
16/04:00am 11.7 9.2 8.0 78 1.8 SSE 11 13 6 7 1010.7 1010.6 0.0
16/03:30am 12.4 10.8 8.1 75 2.1 E 6 7 3 4 1011.2 1011.1 0.0
16/03:00am 12.7 12.2 8.0 73 2.3 CALM 0 6 0 3 1011.7 1011.6 0.0
16/02:30am 12.9 12.1 8.0 72 2.4 SE 2 7 1 4 1012.2 1012.0 0.0
16/02:00am 13.1 11.5 7.8 70 2.6 S 6 11 3 6 1012.8 1012.6 0.0
16/01:30am 13.2 10.3 8.1 71 2.6 SSE 13 15 7 8 1012.6 1012.4 0.0
16/01:00am 13.3 11.5 8.0 70 2.7 S 7 11 4 6 1012.9 1012.7 0.0
16/12:30am 13.2 11.4 8.1 71 2.6 SSE 7 11 4 6 1012.4 1012.2 0.0
16/12:00am 13.4 11.7 8.3 71 2.6 SSE 7 9 4 5 1012.6 1012.4 0.0
 
Date/Time
EDT
Temp
°C
App
Temp
°C
Dew
Point
°C
Rel
Hum
%
Delta-T
°C
Wind Press
QNH
hPa
Press
MSL
hPa
Rain since
9am
mm
Dir  Spd
km/h
Gust
km/h
Spd
kts
Gust
kts
15/11:30pm 13.8 12.1 8.2 69 2.8 S 7 9 4 5 1012.7 1012.5 0.0
15/11:00pm 14.4 12.3 8.4 67 3.0 S 9 13 5 7 1013.1 1012.9 0.0
15/10:30pm 14.4 12.3 8.1 66 3.2 SSE 9 13 5 7 1013.3 1013.2 0.0
15/10:00pm 15.1 12.6 8.3 64 3.5 S 11 17 6 9 1013.4 1013.3 0.0
15/09:30pm 15.2 12.7 8.0 62 3.6 SSE 11 15 6 8 1013.2 1013.1 0.0
15/09:00pm 15.9 12.6 7.9 59 4.1 SSE 15 19 8 10 1012.9 1012.7 0.0
15/08:30pm 16.4 12.5 7.3 55 4.6 SSE 17 26 9 14 1012.9 1012.7 0.0
15/08:00pm 18.0 14.7 6.5 47 5.8 SSW 13 20 7 11 1012.8 1012.6 0.0
15/07:30pm 18.8 15.2 8.2 50 5.5 SW 17 24 9 13 1012.4 1012.2 0.0
15/07:00pm 19.5 16.2 7.9 47 6.0 SSW 15 20 8 11 1011.4 1011.3 0.0
15/06:30pm 20.3 16.1 5.9 39 7.2 SSW 17 22 9 12 1011.0 1010.9 0.0
15/06:00pm 21.0 16.8 3.7 32 8.4 SSW 15 22 8 12 1011.1 1011.0 0.0
15/05:30pm 22.1 16.7 2.2 27 9.4 WSW 20 30 11 16 1011.1 1011.0 0.0
15/05:00pm 22.9 17.8 0.7 23 10.3 WSW 17 30 9 16 1010.7 1010.6 0.0
15/04:30pm 23.3 18.3 1.6 24 10.3 WSW 17 24 9 13 1010.5 1010.4 0.0
15/04:00pm 23.8 19.6 1.4 23 10.6 W 13 20 7 11 1010.3 1010.2 0.0
15/03:30pm 23.2 18.6 -1.0 20 10.9 SW 13 20 7 11 1010.7 1010.6 0.0
15/03:00pm 22.9 18.4 -0.6 21 10.6 SW 13 22 7 12 1011.0 1010.9 0.0
15/02:30pm 22.0 17.4 1.6 26 9.6 W 15 22 8 12 1011.5 1011.4 0.0
15/02:00pm 22.9 18.2 2.9 27 9.7 WSW 17 28 9 15 1011.9 1011.7 0.0
15/01:30pm 22.5 18.4 2.1 26 9.7 WNW 13 28 7 15 1011.7 1011.6 0.0
15/01:00pm 22.7 18.9 5.6 33 8.7 W 15 20 8 11 1011.7 1011.6 0.0
15/12:30pm 21.7 19.4 7.5 40 7.4 SSW 9 19 5 10 1012.1 1011.9 0.0
15/12:00pm 20.9 18.9 8.5 45 6.6 SSW 9 13 5 7 1012.4 1012.2 0.0
15/11:30am 19.2 17.5 8.2 49 5.7 S 7 13 4 7 1012.8 1012.6 0.0
15/11:00am 18.3 16.9 9.6 57 4.6 ESE 7 15 4 8 1013.1 1012.9 0.0
15/10:30am 17.2 14.7 9.6 61 4.0 SE 13 19 7 10 1013.1 1012.9 0.0
15/10:00am 16.1 13.5 9.5 65 3.5 SSE 13 20 7 11 1013.0 1012.8 0.0
15/09:30am 14.9 11.2 9.3 69 2.9 SSE 19 22 10 12 1012.9 1012.7 0.0
15/09:00am 14.1 10.7 9.1 72 2.6 SSE 17 20 9 11 1012.6 1012.4 0.0
15/08:30am 13.3 10.3 9.4 77 2.0 SSE 15 19 8 10 1012.7 1012.5 0.0
15/08:00am 12.1 9.4 9.1 82 1.5 S 13 20 7 11 1013.1 1012.9 0.0
15/07:30am 11.2 8.9 8.9 86 1.2 S 11 15 6 8 1012.7 1012.5 0.0
15/07:00am 10.7 8.4 9.1 90 0.8 S 11 15 6 8 1012.3 1012.1 0.0
15/06:30am 10.5 8.9 8.9 90 0.8 SSW 7 13 4 7 1012.1 1011.9 0.0
15/06:00am 10.7 8.8 9.1 90 0.8 S 9 13 5 7 1012.0 1011.8 0.0
15/05:30am 10.8 8.9 9.2 90 0.8 SSW 9 13 5 7 1011.9 1011.7 0.0
15/05:00am 11.0 9.2 9.4 90 0.8 S 9 11 5 6 1011.7 1011.6 0.0
15/04:30am 11.3 9.5 9.6 89 0.9 SSW 9 13 5 7 1012.0 1011.8 0.0
15/04:00am 11.5 9.7 9.4 87 1.1 SSW 9 11 5 6 1012.0 1011.8 0.0
15/03:30am 12.1 10.0 9.8 86 1.2 S 11 19 6 10 1012.3 1012.1 0.0
15/03:00am 12.2 10.1 9.8 85 1.2 SSW 11 15 6 8 1012.6 1012.4 0.0
15/02:30am 12.3 9.8 9.7 84 1.3 S 13 19 7 10 1012.5 1012.3 0.0
15/02:00am 12.8 9.6 10.0 83 1.5 SSE 17 24 9 13 1012.6 1012.4 0.0
15/01:30am 13.3 9.8 10.1 81 1.7 S 19 26 10 14 1013.1 1012.9 0.0
15/01:00am 13.6 9.5 10.2 80 1.8 S 22 35 12 19 1013.2 1013.1 0.0
15/12:30am 13.8 10.2 10.4 80 1.8 S 20 28 11 15 1013.4 1013.3 0.0
15/12:00am 14.0 11.0 10.6 80 1.8 S 17 26 9 14 1013.3 1013.2 0.0
 
Date/Time
EDT
Temp
°C
App
Temp
°C
Dew
Point
°C
Rel
Hum
%
Delta-T
°C
Wind Press
QNH
hPa
Press
MSL
hPa
Rain since
9am
mm
Dir  Spd
km/h
Gust
km/h
Spd
kts
Gust
kts
14/11:30pm 14.3 10.7 10.7 79 1.9 S 20 26 11 14 1013.2 1013.1 0.0
14/11:00pm 14.8 11.0 11.2 79 1.9 S 22 30 12 16 1012.7 1012.5 0.0
14/10:30pm 15.7 12.3 11.3 75 2.4 S 20 32 11 17 1012.6 1012.4 0.0
14/10:00pm 16.6 13.5 11.5 72 2.8 SSE 19 28 10 15 1012.2 1012.0 0.0
14/09:30pm 18.0 15.1 10.9 63 3.9 S 17 28 9 15 1012.0 1011.8 0.0
14/09:00pm 18.9 16.5 11.5 62 4.1 SW 15 20 8 11 1011.2 1011.1 0.0
14/08:30pm 19.7 16.2 7.4 45 6.3 SW 15 24 8 13 1010.7 1010.6 0.0
14/08:00pm 20.2 18.4 3.4 33 8.0 SW 2 7 1 4 1010.4 1010.3 0.0

Other formats

Comma delimited format used in spreadsheet applications
http://www.bom.gov.au/fwo/IDV60801/IDV60801.94855.axf

JavaScript Object Notation format (JSON) in row-major order
http://www.bom.gov.au/fwo/IDV60801/IDV60801.94855.json

Data quality

Most of these data are generated automatically and are frequently updated. Quality checks on data are not normally performed. It is possible for incorrect values to appear. Refer to information at About Latest Weather Observations and please check the disclaimer before using these data.